Portada
METAR-TAF:

METAR-TAF

Aeropuertos :

Mont-De-Marsan, Francia

latitud: 43-55N, longitud: 000-30W, altitud: 62 m

Observación

El informe se hizo hace 11 minutos, a las 16:30 UTC
Viento 7 kt del este
Temperatura 31°C
Humedad 43%
Presión 1013 hPa
Visibilidad 10 km o más
sin nubes por debajo de 1500 m y sin presencia de cumulonimbus.

METAR: LFBM 281630Z AUTO 10007KT CAVOK 31/17 Q1013

Hora: 18:41 (16:41 UTC)

Pronóstico

El informe se hizo hace 2 horas y 41 minutos, a las 14:00 UTC
Pronóstico válido del 28 a las 15 UTC al 29 a las 15 UTC
Viento 7 kt del este
Visibilidad 10 km o más
sin nubes por debajo de 1500 m y sin presencia de cumulonimbus.
Temporalmente
del 29 a las 02 UTC al 29 a las 06 UTC
Nubes dispersas a una altura de 1000 ft
Cielo nuboso a una altura de 1400 ft

TAF: LFBM 281400Z 2815/2915 09007KT CAVOK TEMPO 2902/2906 SCT010 BKN014

Observaciones y pronósticos meteorológicos de más de 4000 aeropuertos (mensajes METAR y TAF).

Los puntos amarillos y rojos representan las estaciones disponibles.

Ponga el ratón en el punto deseado para ver el nombre de la estación.

Haga clic para ver las observaciones y los pronósticos meteorológicos.

Para cambiar el mapa : haga clic en los botones verdes con una cruz de color negro para hacer un zoom, en el botón verde con un guión para alejar o en las flechas verdes para mapas adyacentes.


METAR-TAF: